Greenmountain, North Carolina
Current Conditions -  °F | °C
As of 9:35 AM on Monday 26 Jan 2015 (Local Time) from K0A9 Reporting Station
Light Rain Light Rain  
Wind Chill: 30°   Ceiling: 1100
Heat Index: 36°   Visibility: 6mi
Dew Point: 36°   Wind: 7mph
Humidity: 100%   Direction: 250°WSW
Pressure: 29.69"   Gusts: NA
Location:  35.9956°N, 82.2879°W
Report Text: K0A9 261435Z AUTO 25006KT 6SM -RA BR OVC011 02/02 A2969 RMK
Loading
Personal Weather Stations






























Interactive Weather Map New forecast layout! Learn more

10-Day Weather Forecast

Advertisements
Track Severe Weather on mobile